Dades meteomassalio
Diari Summary for Gener 22, 2018 Units:  English    Metric   Both
« Previous Day
Next Day »
Diari Semanal Mensual Anual Personalitzat
  Maxima: Minima: Mijana:
Temperatura: TemperatureC °F 5.6 °F 13.2 °F
Rosada: DewpointC °F 2.0 °F 6.8 °F
Humitat: Humidity % 51 % 65 %
Velocitat del vent: WindSpeedKMH mph 0.0 mph 26.9 mph
Racha vent: WindSpeedGustKMH mph - -
Vent:- - NW
Pressio: PressurehPa in 1027.0 in -
Pluja: 0.0 in    
Historical Graphs
 
 
Tabular Data for Gener 22, 2018
Time Temperature Dew Point Pressure Wind Wind Speed Wind Gust Humidity Rainfall Rate (Hourly) solar Conditions
TemperatureC °F DewpointC °F PressurehPa in Calm     Humidity % HourlyPrecipMM in SolarRadiationWatts/m^2 W/m2 Conditions
00:00 13.3 °F 8.4 °F 1029.0 in WNW 25.9 mph 25.9 mph 72 % 0.0 in 0.0 W/m2 CLR
00:10 13.3 °F 8.2 °F 1029.0 in NW 29.0 mph 29.0 mph 71 % 0.0 in 0.0 W/m2 CLR
00:15 13.3 °F 8.2 °F 1029.0 in WNW 31.5 mph 31.5 mph 71 % 0.0 in 0.0 W/m2 CLR
00:20 13.3 °F 8.2 °F 1029.0 in NNW 22.5 mph 22.5 mph 71 % 0.0 in 0.0 W/m2 CLR
00:30 13.3 °F 8.2 °F 1029.0 in NW 31.5 mph 31.5 mph 71 % 0.0 in 0.0 W/m2 CLR
00:35 13.3 °F 8.2 °F 1029.0 in NW 29.6 mph 29.6 mph 71 % 0.0 in 0.0 W/m2 CLR
00:40 13.3 °F 8.2 °F 1029.0 in NW 29.6 mph 29.6 mph 71 % 0.0 in 0.0 W/m2 CLR
00:46 13.3 °F 8.2 °F 1029.0 in NW 35.2 mph 35.2 mph 71 % 0.0 in 0.0 W/m2 CLR
00:51 13.3 °F 8.2 °F 1029.0 in NW 32.2 mph 32.2 mph 71 % 0.0 in 0.0 W/m2 CLR
00:56 13.3 °F 8.2 °F 1029.0 in NNW 31.5 mph 31.5 mph 71 % 0.0 in 0.0 W/m2 CLR
01:01 13.3 °F 8.2 °F 1028.7 in NW 29.6 mph 29.6 mph 71 % 0.0 in 0.0 W/m2 CLR
01:06 13.3 °F 8.2 °F 1029.0 in NW 24.1 mph 24.1 mph 71 % 0.0 in 0.0 W/m2 CLR
01:12 13.3 °F 8.2 °F 1029.0 in NW 24.1 mph 24.1 mph 71 % 0.0 in 0.0 W/m2 CLR
01:16 13.3 °F 8.2 °F 1028.7 in NW 31.5 mph 31.5 mph 71 % 0.0 in 0.0 W/m2 CLR
01:22 13.3 °F 8.2 °F 1028.7 in NW 24.1 mph 24.1 mph 71 % 0.0 in 0.0 W/m2 CLR
01:27 13.3 °F 8.0 °F 1028.7 in NW 24.1 mph 24.1 mph 70 % 0.0 in 0.0 W/m2 CLR
01:32 13.3 °F 8.0 °F 1028.7 in NW 24.1 mph 24.1 mph 70 % 0.0 in 0.0 W/m2 CLR
01:37 13.3 °F 8.0 °F 1028.7 in WNW 20.4 mph 20.4 mph 70 % 0.0 in 0.0 W/m2 CLR
01:42 13.3 °F 8.2 °F 1028.7 in NW 22.2 mph 22.2 mph 71 % 0.0 in 0.0 W/m2 CLR
01:47 12.8 °F 7.7 °F 1028.7 in WNW 25.9 mph 25.9 mph 71 % 0.0 in 0.0 W/m2 CLR
01:52 12.8 °F 7.4 °F 1028.7 in WNW 20.4 mph 20.4 mph 70 % 0.0 in 0.0 W/m2 CLR
01:57 12.8 °F 7.4 °F 1028.7 in NW 31.5 mph 31.5 mph 70 % 0.0 in 0.0 W/m2 CLR
02:02 12.8 °F 7.4 °F 1028.3 in NW 19.3 mph 19.3 mph 70 % 0.0 in 0.0 W/m2 CLR
02:07 13.3 °F 8.0 °F 1028.7 in NW 29.6 mph 29.6 mph 70 % 0.0 in 0.0 W/m2 CLR
02:12 13.3 °F 8.0 °F 1028.7 in WNW 25.9 mph 25.9 mph 70 % 0.0 in 0.0 W/m2 CLR
02:17 12.8 °F 7.4 °F 1028.7 in WNW 22.5 mph 22.5 mph 70 % 0.0 in 0.0 W/m2 CLR
02:22 12.8 °F 7.4 °F 1028.7 in WNW 13.0 mph 13.0 mph 70 % 0.0 in 0.0 W/m2 CLR
02:27 12.8 °F 7.7 °F 1028.7 in WNW 18.5 mph 18.5 mph 71 % 0.0 in 0.0 W/m2 CLR
02:32 12.8 °F 7.7 °F 1028.7 in WNW 11.1 mph 11.1 mph 71 % 0.0 in 0.0 W/m2 CLR
02:37 12.8 °F 7.7 °F 1028.7 in WNW 11.1 mph 11.1 mph 71 % 0.0 in 0.0 W/m2 CLR
02:42 12.2 °F 7.1 °F 1028.7 in WSW 4.8 mph 4.8 mph 71 % 0.0 in 0.0 W/m2 CLR
02:47 12.2 °F 7.3 °F 1028.7 in West 7.4 mph 7.4 mph 72 % 0.0 in 0.0 W/m2 CLR
02:52 11.7 °F 6.8 °F 1028.7 in West 5.6 mph 5.6 mph 72 % 0.0 in 0.0 W/m2 CLR
02:57 11.1 °F 6.4 °F 1028.7 in Calm     73 % 0.0 in 0.0 W/m2 CLR
03:02 11.1 °F 6.4 °F 1028.7 in WNW 13.0 mph 13.0 mph 73 % 0.0 in 0.0 W/m2 CLR
03:07 11.7 °F 7.0 °F 1028.7 in Calm     73 % 0.0 in 0.0 W/m2 CLR
03:12 11.7 °F 7.2 °F 1028.7 in Calm     74 % 0.0 in 0.0 W/m2 CLR
03:17 11.1 °F 6.8 °F 1028.7 in West 18.5 mph 18.5 mph 75 % 0.0 in 0.0 W/m2 CLR
03:22 10.6 °F 6.1 °F 1028.7 in Calm     74 % 0.0 in 0.0 W/m2 CLR
03:27 10.6 °F 6.1 °F 1028.7 in Calm     74 % 0.0 in 0.0 W/m2 CLR
03:37 10.0 °F 5.8 °F 1028.7 in WNW 7.4 mph 7.4 mph 75 % 0.0 in 0.0 W/m2 CLR
03:47 10.6 °F 6.1 °F 1028.7 in NW 25.9 mph 25.9 mph 74 % 0.0 in 0.0 W/m2 CLR
03:52 11.1 °F 6.7 °F 1028.7 in WNW 25.9 mph 25.9 mph 74 % 0.0 in 0.0 W/m2 CLR
03:57 11.1 °F 6.4 °F 1028.7 in WNW 25.9 mph 25.9 mph 73 % 0.0 in 0.0 W/m2 CLR
04:02 11.1 °F 6.4 °F 1028.7 in West 13.0 mph 13.0 mph 73 % 0.0 in 0.0 W/m2 CLR
04:07 11.1 °F 6.7 °F 1028.7 in WSW 18.5 mph 18.5 mph 74 % 0.0 in 0.0 W/m2 CLR
04:12 11.1 °F 6.7 °F 1028.7 in West 1.9 mph 1.9 mph 74 % 0.0 in 0.0 W/m2 CLR
04:17 11.1 °F 6.8 °F 1028.7 in WNW 16.7 mph 16.7 mph 75 % 0.0 in 0.0 W/m2 CLR
04:22 10.6 °F 6.3 °F 1028.7 in WNW 29.6 mph 29.6 mph 75 % 0.0 in 0.0 W/m2 CLR
04:27 10.6 °F 6.3 °F 1028.7 in NW 18.5 mph 18.5 mph 75 % 0.0 in 0.0 W/m2 CLR
04:32 10.6 °F 6.3 °F 1028.7 in West 5.6 mph 5.6 mph 75 % 0.0 in 0.0 W/m2 CLR
04:47 10.6 °F 6.5 °F 1028.7 in West 18.5 mph 18.5 mph 76 % 0.0 in 0.0 W/m2 CLR
04:52 11.1 °F 7.1 °F 1028.7 in WNW 14.8 mph 14.8 mph 76 % 0.0 in 0.0 W/m2 CLR
04:57 10.6 °F 6.5 °F 1028.3 in NW 18.5 mph 18.5 mph 76 % 0.0 in 0.0 W/m2 CLR
05:02 10.6 °F 6.3 °F 1028.3 in WNW 19.3 mph 19.3 mph 75 % 0.0 in 0.0 W/m2 CLR
05:07 10.6 °F 6.3 °F 1028.3 in WNW 20.4 mph 20.4 mph 75 % 0.0 in 0.0 W/m2 CLR
05:12 10.6 °F 6.3 °F 1028.3 in West 25.9 mph 25.9 mph 75 % 0.0 in 0.0 W/m2 CLR
05:22 11.1 °F 6.8 °F 1028.7 in WNW 25.9 mph 25.9 mph 75 % 0.0 in 0.0 W/m2 CLR
05:37 11.1 °F 6.7 °F 1028.7 in WNW 22.2 mph 22.2 mph 74 % 0.0 in 0.0 W/m2 CLR
05:47 11.1 °F 6.7 °F 1028.7 in WNW 24.1 mph 24.1 mph 74 % 0.0 in 0.0 W/m2 CLR
05:57 10.6 °F 6.1 °F 1028.3 in West 1.9 mph   74 % 0.0 in 0.0 W/m2 CLR
06:02 10.6 °F 6.3 °F 1028.3 in WNW 18.5 mph 18.5 mph 75 % 0.0 in 0.0 W/m2 CLR
06:12 10.6 °F 5.9 °F 1028.3 in NNW 31.5 mph 31.5 mph 73 % 0.0 in 0.0 W/m2 CLR
06:17 11.1 °F 6.4 °F 1028.7 in NW 22.2 mph 22.2 mph 73 % 0.0 in 0.0 W/m2 CLR
06:22 11.1 °F 6.4 °F 1028.7 in NW 25.7 mph 25.7 mph 73 % 0.0 in 0.0 W/m2 CLR
06:27 11.1 °F 6.4 °F 1028.7 in NW 22.2 mph 22.2 mph 73 % 0.0 in 0.0 W/m2 CLR
06:37 10.6 °F 5.9 °F 1028.3 in West 13.0 mph 13.0 mph 73 % 0.0 in 0.0 W/m2 CLR
06:42 10.6 °F 6.1 °F 1028.7 in Calm     74 % 0.0 in 0.0 W/m2 CLR
06:47 10.0 °F 5.6 °F 1028.7 in WSW 5.6 mph 5.6 mph 74 % 0.0 in 0.0 W/m2 CLR
06:57 9.4 °F 5.2 °F 1028.3 in Calm     75 % 0.0 in 0.0 W/m2 CLR
07:02 8.9 °F 4.7 °F 1028.7 in Calm     75 % 0.0 in 0.0 W/m2 CLR
07:12 8.3 °F 4.3 °F 1028.3 in Calm     76 % 0.0 in 0.0 W/m2 CLR
07:17 7.8 °F 3.8 °F 1028.3 in Calm     76 % 0.0 in 0.0 W/m2 CLR
07:22 8.3 °F 4.3 °F 1028.3 in Calm     76 % 0.0 in 0.0 W/m2 CLR
07:27 7.8 °F 3.8 °F 1028.3 in Calm     76 % 0.0 in 0.0 W/m2 CLR
07:32 7.2 °F 3.4 °F 1028.3 in Calm     77 % 0.0 in 0.0 W/m2 CLR
07:38 7.2 °F 3.7 °F 1028.3 in Calm     78 % 0.0 in 0.0 W/m2 CLR
07:48 6.1 °F 2.6 °F 1028.3 in Calm     78 % 0.0 in 0.0 W/m2 CLR
07:53 6.1 °F 2.6 °F 1028.3 in Calm   0.5 mph 78 % 0.0 in 0.0 W/m2 CLR
07:58 5.6 °F 2.0 °F 1028.3 in WSW 3.7 mph 3.7 mph 78 % 0.0 in 0.0 W/m2 CLR
08:03 5.6 °F 2.0 °F 1028.3 in WSW 3.7 mph 3.7 mph 78 % 0.0 in 0.0 W/m2 CLR
08:08 5.6 °F 2.2 °F 1028.3 in WSW 5.6 mph 5.6 mph 79 % 0.0 in 0.0 W/m2 OVC
08:13 5.6 °F 2.2 °F 1028.3 in WNW 9.3 mph 9.3 mph 79 % 0.0 in 0.0 W/m2 OVC
08:18 5.6 °F 2.2 °F 1028.3 in West 5.6 mph 5.6 mph 79 % 0.0 in 5.0 W/m2 OVC
08:28 6.7 °F 3.3 °F 1028.3 in West 11.1 mph 11.1 mph 79 % 0.0 in 9.0 W/m2 BKN
08:33 7.8 °F 4.4 °F 1028.3 in West 14.8 mph 14.8 mph 79 % 0.0 in 11.0 W/m2 BKN
08:43 7.8 °F 4.2 °F 1028.7 in West 9.3 mph 9.3 mph 78 % 0.0 in 14.0 W/m2 BKN
08:48 7.8 °F 4.0 °F 1028.7 in WSW 5.6 mph 5.6 mph 77 % 0.0 in 18.0 W/m2 BKN
08:53 8.9 °F 5.1 °F 1028.7 in West 8.0 mph 8.0 mph 77 % 0.0 in 28.0 W/m2 BKN
08:58 9.4 °F 5.2 °F 1028.7 in NW 7.4 mph 7.4 mph 75 % 0.0 in 37.0 W/m2 BKN
09:03 10.0 °F 5.8 °F 1028.7 in WSW 5.6 mph 5.6 mph 75 % 0.0 in 47.0 W/m2 SCT
09:08 10.6 °F 6.1 °F 1029.0 in Calm     74 % 0.0 in 56.0 W/m2 SCT
09:18 10.6 °F 5.9 °F 1029.0 in Calm     73 % 0.0 in 74.0 W/m2 FEW
09:23 10.6 °F 5.7 °F 1029.0 in West 3.7 mph 3.7 mph 72 % 0.0 in 84.0 W/m2 FEW
09:33 10.6 °F 5.3 °F 1029.0 in NW 14.8 mph 14.8 mph 70 % 0.0 in 127.0 W/m2 CLR
09:38 10.6 °F 5.1 °F 1029.0 in WNW 11.1 mph 11.1 mph 69 % 0.0 in 139.0 W/m2 CLR
09:48 11.1 °F 5.4 °F 1029.0 in NW 22.5 mph 22.5 mph 68 % 0.0 in 174.0 W/m2 CLR
09:53 11.7 °F 5.7 °F 1029.0 in West 20.4 mph 20.4 mph 67 % 0.0 in 188.0 W/m2 CLR
09:58 12.2 °F 6.3 °F 1029.0 in NW 18.5 mph 18.5 mph 67 % 0.0 in 148.0 W/m2 CLR
10:03 12.2 °F 6.3 °F 1029.0 in WNW 18.5 mph 18.5 mph 67 % 0.0 in 220.0 W/m2 CLR
10:08 12.2 °F 6.3 °F 1029.0 in WNW 22.5 mph 22.5 mph 67 % 0.0 in 236.0 W/m2 CLR
10:18 12.8 °F 6.6 °F 1029.3 in NW 5.6 mph 5.6 mph 66 % 0.0 in 262.0 W/m2 CLR
10:28 13.3 °F 6.9 °F 1029.3 in WNW 9.3 mph 9.3 mph 65 % 0.0 in 285.0 W/m2 CLR
10:33 13.3 °F 6.9 °F 1029.3 in NW 1.9 mph 1.9 mph 65 % 0.0 in 295.0 W/m2 CLR
10:43 13.9 °F 6.9 °F 1029.7 in NW 9.3 mph 9.3 mph 63 % 0.0 in 320.0 W/m2 CLR
10:48 13.9 °F 6.5 °F 1029.7 in WNW 24.1 mph 24.1 mph 61 % 0.0 in 329.0 W/m2 CLR
10:58 14.4 °F 7.0 °F 1029.7 in NW 18.5 mph 18.5 mph 61 % 0.0 in 348.0 W/m2 CLR
11:03 14.4 °F 6.8 °F 1029.7 in NW 22.5 mph 22.5 mph 60 % 0.0 in 359.0 W/m2 CLR
11:08 15.0 °F 7.3 °F 1029.7 in WNW 4.8 mph 4.8 mph 60 % 0.0 in 369.0 W/m2 CLR
11:13 15.0 °F 7.3 °F 1029.7 in WNW 27.8 mph 27.8 mph 60 % 0.0 in 378.0 W/m2 CLR
11:18 15.0 °F 7.3 °F 1029.7 in NNW 22.2 mph 22.2 mph 60 % 0.0 in 385.0 W/m2 CLR
11:23 15.0 °F 7.1 °F 1029.7 in NNW 27.8 mph 27.8 mph 59 % 0.0 in 394.0 W/m2 CLR
11:28 15.0 °F 7.1 °F 1029.3 in NNW 35.2 mph 35.2 mph 59 % 0.0 in 397.0 W/m2 CLR
11:33 15.0 °F 7.1 °F 1029.3 in NNW 32.2 mph 32.2 mph 59 % 0.0 in 410.0 W/m2 CLR
11:38 15.0 °F 7.1 °F 1029.3 in NNW 38.9 mph 38.9 mph 59 % 0.0 in 417.0 W/m2 CLR
11:43 15.0 °F 7.1 °F 1029.3 in NNW 33.3 mph 33.3 mph 59 % 0.0 in 424.0 W/m2 CLR
11:48 15.0 °F 6.8 °F 1029.3 in NNW 42.6 mph 42.6 mph 58 % 0.0 in 432.0 W/m2 CLR
11:53 15.0 °F 7.1 °F 1029.0 in NW 37.0 mph 37.0 mph 59 % 0.0 in 439.0 W/m2 CLR
11:58 15.0 °F 7.1 °F 1029.0 in WNW 38.9 mph 38.9 mph 59 % 0.0 in 445.0 W/m2 CLR
12:03 15.0 °F 7.1 °F 1029.0 in NW 40.7 mph 40.7 mph 59 % 0.0 in 452.0 W/m2 CLR
12:08 15.6 °F 7.6 °F 1029.0 in WNW 33.3 mph 33.3 mph 59 % 0.0 in 459.0 W/m2 CLR
12:13 15.0 °F 7.1 °F 1029.0 in NW 37.0 mph 37.0 mph 59 % 0.0 in 462.0 W/m2 CLR
12:18 15.6 °F 7.3 °F 1029.0 in NNW 37.0 mph 37.0 mph 58 % 0.0 in 466.0 W/m2 CLR
12:23 15.6 °F 7.3 °F 1029.0 in NW 33.3 mph 33.3 mph 58 % 0.0 in 469.0 W/m2 CLR
12:28 15.6 °F 7.3 °F 1028.7 in NW 25.9 mph 25.9 mph 58 % 0.0 in 476.0 W/m2 CLR
12:33 16.1 °F 7.6 °F 1029.0 in NNW 29.0 mph 29.0 mph 57 % 0.0 in 480.0 W/m2 CLR
12:38 16.1 °F 7.3 °F 1029.0 in North 37.0 mph 37.0 mph 56 % 0.0 in 482.0 W/m2 CLR
12:43 16.1 °F 7.3 °F 1028.7 in NW 31.5 mph 31.5 mph 56 % 0.0 in 483.0 W/m2 CLR
12:53 16.1 °F 7.1 °F 1028.7 in NW 29.6 mph 29.6 mph 55 % 0.0 in 487.0 W/m2 CLR
12:58 16.1 °F 7.3 °F 1028.3 in NNW 38.9 mph 38.9 mph 56 % 0.0 in 489.0 W/m2 CLR
13:03 16.1 °F 7.1 °F 1028.3 in NNW 25.9 mph 25.9 mph 55 % 0.0 in 489.0 W/m2 CLR
13:13 16.7 °F 7.3 °F 1028.3 in NNW 20.9 mph 20.9 mph 54 % 0.0 in 490.0 W/m2 CLR
13:18 16.7 °F 7.3 °F 1028.0 in WNW 24.1 mph 24.1 mph 54 % 0.0 in 490.0 W/m2 CLR
13:28 17.2 °F 7.3 °F 1028.0 in NNW 25.7 mph 25.7 mph 52 % 0.0 in 489.0 W/m2 CLR
13:33 17.2 °F 7.3 °F 1028.0 in North 27.8 mph 27.8 mph 52 % 0.0 in 489.0 W/m2 CLR
13:38 17.2 °F 7.3 °F 1028.0 in NNW 29.6 mph 29.6 mph 52 % 0.0 in 485.0 W/m2 CLR
13:49 16.7 °F 7.3 °F 1028.0 in NW 20.4 mph 20.4 mph 54 % 0.0 in 483.0 W/m2 CLR
13:59 16.7 °F 7.1 °F 1027.7 in NNW 35.4 mph 35.4 mph 53 % 0.0 in 475.0 W/m2 CLR
14:04 16.7 °F 7.3 °F 1027.7 in NW 31.5 mph 31.5 mph 54 % 0.0 in 471.0 W/m2 CLR
14:14 16.7 °F 7.3 °F 1027.7 in NW 35.2 mph 35.2 mph 54 % 0.0 in 464.0 W/m2 CLR
14:24 16.7 °F 7.6 °F 1027.7 in NNW 16.7 mph 16.7 mph 55 % 0.0 in 454.0 W/m2 CLR
14:29 16.7 °F 7.6 °F 1027.7 in NNW 27.8 mph 27.8 mph 55 % 0.0 in 445.0 W/m2 CLR
14:34 16.7 °F 7.3 °F 1027.3 in NW 25.9 mph 25.9 mph 54 % 0.0 in 439.0 W/m2 CLR
14:44 16.7 °F 7.3 °F 1027.3 in NW 18.5 mph 18.5 mph 54 % 0.0 in 427.0 W/m2 CLR
14:54 17.2 °F 7.8 °F 1027.3 in NW 18.5 mph 18.5 mph 54 % 0.0 in 413.0 W/m2 CLR
14:59 16.7 °F 7.3 °F 1027.3 in NNW 29.6 mph 29.6 mph 54 % 0.0 in 403.0 W/m2 CLR
15:04 17.2 °F 7.8 °F 1027.3 in NNW 18.5 mph 18.5 mph 54 % 0.0 in 394.0 W/m2 CLR
15:09 17.2 °F 7.6 °F 1027.0 in WNW 16.7 mph 16.7 mph 53 % 0.0 in 387.0 W/m2 CLR
15:19 17.2 °F 7.3 °F 1027.0 in NW 33.3 mph 33.3 mph 52 % 0.0 in 371.0 W/m2 CLR
15:24 16.7 °F 7.1 °F 1027.0 in NW 27.8 mph 27.8 mph 53 % 0.0 in 364.0 W/m2 CLR
15:34 16.7 °F 6.8 °F 1027.0 in WNW 18.5 mph 18.5 mph 52 % 0.0 in 345.0 W/m2 CLR
15:44 16.7 °F 6.8 °F 1027.0 in NW 25.9 mph 25.9 mph 52 % 0.0 in 322.0 W/m2 CLR
15:49 16.7 °F 6.5 °F 1027.0 in North 29.6 mph 29.6 mph 51 % 0.0 in 315.0 W/m2 CLR
15:54 17.2 °F 7.0 °F 1027.0 in NW 24.1 mph 24.1 mph 51 % 0.0 in 304.0 W/m2 CLR
15:59 16.7 °F 6.5 °F 1027.0 in NW 25.7 mph 25.7 mph 51 % 0.0 in 294.0 W/m2 CLR
16:04 17.2 °F 7.0 °F 1027.0 in NW 25.9 mph 25.9 mph 51 % 0.0 in 283.0 W/m2 CLR
16:09 16.7 °F 6.5 °F 1027.0 in NNW 30.6 mph 30.6 mph 51 % 0.0 in 271.0 W/m2 CLR
16:14 16.7 °F 6.5 °F 1027.0 in NNW 37.0 mph 37.0 mph 51 % 0.0 in 262.0 W/m2 CLR
16:19 16.7 °F 6.5 °F 1027.0 in NW 33.3 mph 33.3 mph 51 % 0.0 in 251.0 W/m2 CLR
16:24 16.7 °F 6.5 °F 1027.0 in NNW 29.6 mph 29.6 mph 51 % 0.0 in 241.0 W/m2 CLR
16:29 16.7 °F 6.5 °F 1027.0 in NNW 42.6 mph 42.6 mph 51 % 0.0 in 229.0 W/m2 CLR
16:34 16.1 °F 5.9 °F 1027.0 in NW 48.1 mph 48.1 mph 51 % 0.0 in 211.0 W/m2 CLR
16:39 16.1 °F 5.9 °F 1027.0 in NNW 37.0 mph 37.0 mph 51 % 0.0 in 195.0 W/m2 CLR
16:44 16.1 °F 5.9 °F 1027.0 in NNW 42.6 mph 42.6 mph 51 % 0.0 in 172.0 W/m2 CLR
16:49 16.1 °F 5.9 °F 1027.0 in NNW 42.6 mph 42.6 mph 51 % 0.0 in 153.0 W/m2 CLR
16:54 16.1 °F 5.9 °F 1027.3 in North 48.1 mph 48.1 mph 51 % 0.0 in 135.0 W/m2 CLR
16:59 16.1 °F 6.2 °F 1027.0 in NNW 33.3 mph 33.3 mph 52 % 0.0 in 118.0 W/m2 CLR
17:04 16.1 °F 6.2 °F 1027.3 in NNW 38.9 mph 38.9 mph 52 % 0.0 in 114.0 W/m2 CLR
17:09 16.1 °F 6.2 °F 1027.3 in NNW 37.0 mph 37.0 mph 52 % 0.0 in 91.0 W/m2 CLR
17:14 16.1 °F 6.2 °F 1027.3 in NNW 40.7 mph 40.7 mph 52 % 0.0 in 86.0 W/m2 CLR
17:19 15.6 °F 5.7 °F 1027.3 in NNW 45.1 mph 45.1 mph 52 % 0.0 in 77.0 W/m2 FEW
17:24 15.6 °F 5.7 °F 1027.3 in NW 31.5 mph 31.5 mph 52 % 0.0 in 62.0 W/m2 SCT
17:29 15.6 °F 5.7 °F 1027.3 in NW 42.6 mph 42.6 mph 52 % 0.0 in 47.0 W/m2 SCT
17:34 15.6 °F 6.0 °F 1027.3 in NNW 42.6 mph 42.6 mph 53 % 0.0 in 39.0 W/m2 BKN
17:39 15.6 °F 6.0 °F 1027.3 in NNW 42.6 mph 42.6 mph 53 % 0.0 in 28.0 W/m2 BKN
17:44 15.0 °F 5.8 °F 1027.3 in NW 31.5 mph 31.5 mph 54 % 0.0 in 21.0 W/m2 BKN
17:49 15.0 °F 6.0 °F 1027.3 in NNW 50.0 mph 50.0 mph 55 % 0.0 in 16.0 W/m2 BKN
17:54 15.0 °F 6.3 °F 1027.3 in NW 35.2 mph 35.2 mph 56 % 0.0 in 11.0 W/m2 BKN
17:59 15.0 °F 6.6 °F 1027.3 in NNW 42.6 mph 42.6 mph 57 % 0.0 in 9.0 W/m2 BKN
18:04 14.4 °F 6.3 °F 1027.3 in NNW 40.7 mph 40.7 mph 58 % 0.0 in 5.0 W/m2 OVC
18:09 14.4 °F 6.3 °F 1027.3 in North 43.4 mph 43.4 mph 58 % 0.0 in 0.0 W/m2 OVC
18:14 14.4 °F 6.3 °F 1027.7 in North 42.6 mph 42.6 mph 58 % 0.0 in 0.0 W/m2 CLR
18:19 14.4 °F 6.5 °F 1027.3 in NW 40.2 mph 40.2 mph 59 % 0.0 in 0.0 W/m2 CLR
18:24 14.4 °F 6.5 °F 1027.7 in NW 40.7 mph 40.7 mph 59 % 0.0 in 0.0 W/m2 CLR
18:29 13.9 °F 6.0 °F 1027.7 in NW 40.7 mph 40.7 mph 59 % 0.0 in 0.0 W/m2 CLR
18:34 13.9 °F 6.2 °F 1027.7 in NNW 40.7 mph 40.7 mph 60 % 0.0 in 0.0 W/m2 CLR
18:39 13.9 °F 6.5 °F 1027.7 in NNW 40.7 mph 40.7 mph 61 % 0.0 in 0.0 W/m2 CLR
18:44 13.9 °F 6.5 °F 1028.0 in NNW 37.0 mph 37.0 mph 61 % 0.0 in 0.0 W/m2 CLR
18:49 13.9 °F 6.5 °F 1028.0 in NW 35.2 mph 35.2 mph 61 % 0.0 in 0.0 W/m2 CLR
18:54 13.9 °F 6.5 °F 1028.0 in NW 33.3 mph 33.3 mph 61 % 0.0 in 0.0 W/m2 CLR
18:59 13.9 °F 6.5 °F 1028.0 in NW 31.5 mph 31.5 mph 61 % 0.0 in 0.0 W/m2 CLR
19:04 13.9 °F 6.5 °F 1028.0 in NW 40.7 mph 40.7 mph 61 % 0.0 in 0.0 W/m2 CLR
19:09 13.9 °F 6.7 °F 1028.0 in North 35.2 mph 35.2 mph 62 % 0.0 in 0.0 W/m2 CLR
19:14 13.9 °F 6.9 °F 1028.0 in NW 40.7 mph 40.7 mph 63 % 0.0 in 0.0 W/m2 CLR
19:20 13.9 °F 6.9 °F 1028.0 in NNW 37.0 mph 37.0 mph 63 % 0.0 in 0.0 W/m2 CLR
19:25 13.9 °F 6.9 °F 1028.0 in NNW 40.7 mph 40.7 mph 63 % 0.0 in 0.0 W/m2 CLR
19:30 13.9 °F 7.2 °F 1028.0 in NW 45.1 mph 45.1 mph 64 % 0.0 in 0.0 W/m2 CLR
19:35 13.9 °F 7.2 °F 1028.0 in NNW 38.9 mph 38.9 mph 64 % 0.0 in 0.0 W/m2 CLR
19:40 13.9 °F 7.2 °F 1028.3 in NW 31.5 mph 31.5 mph 64 % 0.0 in 0.0 W/m2 CLR
19:45 13.9 °F 7.2 °F 1028.0 in NW 37.0 mph 37.0 mph 64 % 0.0 in 0.0 W/m2 CLR
19:50 13.9 °F 7.2 °F 1028.0 in NW 37.0 mph 37.0 mph 64 % 0.0 in 0.0 W/m2 CLR
19:55 13.9 °F 7.4 °F 1028.0 in NW 37.0 mph 37.0 mph 65 % 0.0 in 0.0 W/m2 CLR
20:00 13.9 °F 7.4 °F 1028.0 in NW 33.3 mph 33.3 mph 65 % 0.0 in 0.0 W/m2 CLR
20:05 13.9 °F 7.4 °F 1027.7 in NW 50.0 mph 50.0 mph 65 % 0.0 in 0.0 W/m2 CLR
20:10 13.9 °F 7.4 °F 1027.7 in NW 38.9 mph 38.9 mph 65 % 0.0 in 0.0 W/m2 CLR
20:15 13.9 °F 7.4 °F 1027.7 in NW 45.1 mph 45.1 mph 65 % 0.0 in 0.0 W/m2 CLR
20:20 13.9 °F 7.4 °F 1028.0 in NNW 42.6 mph 42.6 mph 65 % 0.0 in 0.0 W/m2 CLR
20:25 13.9 °F 7.6 °F 1028.0 in NW 48.1 mph 48.1 mph 66 % 0.0 in 0.0 W/m2 CLR
20:30 13.9 °F 7.6 °F 1028.0 in NNW 42.6 mph 42.6 mph 66 % 0.0 in 0.0 W/m2 CLR
20:35 13.9 °F 7.6 °F 1028.3 in NNW 48.3 mph 48.3 mph 66 % 0.0 in 0.0 W/m2 CLR
20:40 13.9 °F 7.8 °F 1028.3 in NW 35.4 mph 35.4 mph 67 % 0.0 in 0.0 W/m2 CLR
20:45 13.9 °F 7.8 °F 1028.3 in NW 40.7 mph 40.7 mph 67 % 0.0 in 0.0 W/m2 CLR
20:50 13.9 °F 7.8 °F 1028.0 in NW 46.3 mph 46.3 mph 67 % 0.0 in 0.0 W/m2 CLR
20:55 13.9 °F 7.8 °F 1028.3 in NW 48.1 mph 48.1 mph 67 % 0.0 in 0.0 W/m2 CLR
21:00 13.9 °F 8.1 °F 1028.3 in NW 35.2 mph 35.2 mph 68 % 0.0 in 0.0 W/m2 CLR
21:05 13.9 °F 8.1 °F 1028.3 in NW 40.7 mph 40.7 mph 68 % 0.0 in 0.0 W/m2 CLR
21:10 13.9 °F 8.1 °F 1028.0 in NW 50.0 mph 50.0 mph 68 % 0.0 in 0.0 W/m2 CLR
21:15 13.9 °F 8.1 °F 1028.0 in NW 43.4 mph 43.4 mph 68 % 0.0 in 0.0 W/m2 CLR
21:20 13.9 °F 8.1 °F 1028.0 in NW 51.8 mph 51.8 mph 68 % 0.0 in 0.0 W/m2 CLR
21:25 13.9 °F 8.1 °F 1028.0 in NW 42.6 mph 42.6 mph 68 % 0.0 in 0.0 W/m2 CLR
21:30 13.9 °F 8.1 °F 1028.0 in NW 48.1 mph 48.1 mph 68 % 0.0 in 0.0 W/m2 CLR
21:35 13.9 °F 8.1 °F 1028.3 in NW 37.0 mph 37.0 mph 68 % 0.0 in 0.0 W/m2 CLR
21:40 13.9 °F 8.3 °F 1028.3 in NW 44.4 mph 44.4 mph 69 % 0.0 in 0.0 W/m2 CLR
21:45 13.9 °F 8.3 °F 1028.3 in NW 42.6 mph 42.6 mph 69 % 0.0 in 0.0 W/m2 CLR
21:50 13.3 °F 7.8 °F 1028.3 in NW 40.7 mph 40.7 mph 69 % 0.0 in 0.0 W/m2 CLR
21:55 13.3 °F 7.8 °F 1028.3 in NW 48.1 mph 48.1 mph 69 % 0.0 in 0.0 W/m2 CLR
22:00 13.3 °F 7.8 °F 1028.3 in NW 35.2 mph 35.2 mph 69 % 0.0 in 0.0 W/m2 CLR
22:05 13.3 °F 7.8 °F 1028.3 in NW 40.7 mph 40.7 mph 69 % 0.0 in 0.0 W/m2 CLR
22:10 13.3 °F 8.0 °F 1028.3 in NW 38.9 mph 38.9 mph 70 % 0.0 in 0.0 W/m2 CLR
22:15 13.3 °F 8.0 °F 1028.3 in NNW 33.3 mph 33.3 mph 70 % 0.0 in 0.0 W/m2 CLR
22:20 13.3 °F 8.0 °F 1028.3 in NW 42.6 mph 42.6 mph 70 % 0.0 in 0.0 W/m2 CLR
22:25 13.3 °F 8.0 °F 1028.3 in NW 42.6 mph 42.6 mph 70 % 0.0 in 0.0 W/m2 CLR
22:30 13.3 °F 8.0 °F 1028.3 in NW 42.6 mph 42.6 mph 70 % 0.0 in 0.0 W/m2 CLR
22:35 13.3 °F 8.0 °F 1028.3 in NW 40.2 mph 40.2 mph 70 % 0.0 in 0.0 W/m2 CLR
22:40 13.3 °F 8.0 °F 1028.7 in WNW 42.6 mph 42.6 mph 70 % 0.0 in 0.0 W/m2 CLR
22:45 13.3 °F 8.0 °F 1028.3 in NW 42.6 mph 42.6 mph 70 % 0.0 in 0.0 W/m2 CLR
22:50 13.3 °F 8.0 °F 1028.7 in NW 40.7 mph 40.7 mph 70 % 0.0 in 0.0 W/m2 CLR
22:55 13.3 °F 8.0 °F 1029.0 in NW 33.8 mph 33.8 mph 70 % 0.0 in 0.0 W/m2 CLR
23:00 13.3 °F 8.0 °F 1028.7 in NW 38.6 mph 38.6 mph 70 % 0.0 in 0.0 W/m2 CLR
23:05 13.3 °F 8.2 °F 1028.7 in NW 37.0 mph 37.0 mph 71 % 0.0 in 0.0 W/m2 CLR
23:10 13.3 °F 8.2 °F 1028.7 in NW 37.0 mph 37.0 mph 71 % 0.0 in 0.0 W/m2 CLR
23:15 13.3 °F 8.2 °F 1028.7 in NW 40.7 mph 40.7 mph 71 % 0.0 in 0.0 W/m2 CLR
23:20 13.3 °F 8.2 °F 1028.7 in NNW 44.4 mph 44.4 mph 71 % 0.0 in 0.0 W/m2 CLR
23:25 13.3 °F 8.2 °F 1028.7 in NW 38.9 mph 38.9 mph 71 % 0.0 in 0.0 W/m2 CLR
23:30 13.3 °F 8.2 °F 1028.7 in NW 37.0 mph 37.0 mph 71 % 0.0 in 0.0 W/m2 CLR
23:35 13.3 °F 8.2 °F 1029.0 in NW 29.6 mph 29.6 mph 71 % 0.0 in 0.0 W/m2 CLR
23:40 13.3 °F 8.2 °F 1029.0 in NW 32.2 mph 32.2 mph 71 % 0.0 in 0.0 W/m2 CLR
23:45 13.3 °F 8.2 °F 1029.0 in NW 37.0 mph 37.0 mph 71 % 0.0 in 0.0 W/m2 CLR
23:50 13.3 °F 8.2 °F 1029.0 in NW 27.8 mph 27.8 mph 71 % 0.0 in 0.0 W/m2 CLR
23:55 13.3 °F 8.0 °F 1029.0 in NW 31.5 mph 31.5 mph 70 % 0.0 in 0.0 W/m2 CLR
Lo Temps de Massalio
Compliments of Weather Underground - 1 mb